createdAt,value
2022-08-26T00:02:07.793Z,20.74
2022-08-26T00:04:36.341Z,20.85
2022-08-26T00:07:05.296Z,20.79
2022-08-26T00:09:38.927Z,20.58
2022-08-26T00:12:12.123Z,20.78
2022-08-26T00:14:41.356Z,20.72
2022-08-26T00:17:09.404Z,20.42
2022-08-26T00:19:37.832Z,20.29
2022-08-26T00:22:06.025Z,20.40
2022-08-26T00:24:34.330Z,20.40
2022-08-26T00:27:02.335Z,20.36
2022-08-26T00:29:34.913Z,20.38
2022-08-26T00:32:05.837Z,20.41
2022-08-26T00:34:34.214Z,20.41
2022-08-26T00:37:02.597Z,20.42
2022-08-26T00:39:31.355Z,20.36
2022-08-26T00:42:00.532Z,20.25
2022-08-26T00:44:28.643Z,20.30
2022-08-26T00:47:03.881Z,19.67
2022-08-26T00:49:39.583Z,20.23
2022-08-26T00:52:11.989Z,19.99
2022-08-26T00:54:46.934Z,20.09
2022-08-26T00:57:18.672Z,20.00
2022-08-26T00:59:50.101Z,20.12
2022-08-26T01:02:21.081Z,20.12
2022-08-26T01:04:55.966Z,19.96
2022-08-26T01:07:27.570Z,19.30
2022-08-26T01:09:59.982Z,19.99
2022-08-26T01:12:30.196Z,19.71
2022-08-26T01:14:57.858Z,19.71
2022-08-26T01:17:27.581Z,19.17
2022-08-26T01:20:02.491Z,19.77
2022-08-26T01:22:35.705Z,19.34
2022-08-26T01:25:07.134Z,19.66
2022-08-26T01:27:36.832Z,19.69
2022-08-26T01:30:07.411Z,19.84
2022-08-26T01:32:36.500Z,19.91
2022-08-26T01:35:08.731Z,19.87
2022-08-26T01:37:40.446Z,19.69
2022-08-26T01:40:17.859Z,19.05
2022-08-26T01:42:47.395Z,19.79
2022-08-26T01:45:20.819Z,19.76
2022-08-26T01:47:56.806Z,19.82
2022-08-26T01:50:30.680Z,19.75
2022-08-26T01:53:02.107Z,19.59
2022-08-26T01:55:34.023Z,19.67
2022-08-26T01:58:06.767Z,19.46
2022-08-26T02:00:36.553Z,19.45
2022-08-26T02:03:22.387Z,19.73
2022-08-26T02:05:55.857Z,19.71
2022-08-26T02:08:30.155Z,19.53
2022-08-26T02:11:00.088Z,19.69
2022-08-26T02:13:31.458Z,19.61
2022-08-26T02:16:00.890Z,19.19
2022-08-26T02:18:30.672Z,18.88
2022-08-26T02:20:58.764Z,19.52
2022-08-26T02:23:28.182Z,19.40
2022-08-26T02:26:03.866Z,19.57
2022-08-26T02:28:38.564Z,19.51
2022-08-26T02:31:07.187Z,19.58
2022-08-26T02:33:36.468Z,19.59
2022-08-26T02:36:05.688Z,19.33
2022-08-26T02:38:37.256Z,19.59
2022-08-26T02:41:10.173Z,19.56
2022-08-26T02:43:38.356Z,19.49
2022-08-26T02:46:07.406Z,19.44
2022-08-26T02:48:35.495Z,19.30
2022-08-26T02:51:03.884Z,19.35
2022-08-26T02:53:35.629Z,19.29
2022-08-26T02:56:04.811Z,19.24
2022-08-26T02:58:34.662Z,19.18
2022-08-26T03:01:04.846Z,19.05
2022-08-26T03:03:34.189Z,19.29
2022-08-26T03:06:02.376Z,19.27
2022-08-26T03:08:30.336Z,19.15
2022-08-26T03:10:58.964Z,19.14
2022-08-26T03:13:29.877Z,19.01
2022-08-26T03:16:01.423Z,18.90
2022-08-26T03:18:31.015Z,18.95
2022-08-26T03:20:59.541Z,19.01
2022-08-26T03:23:27.849Z,19.00
2022-08-26T03:25:56.851Z,18.95
2022-08-26T03:28:27.046Z,18.48
2022-08-26T03:30:54.541Z,18.69
2022-08-26T03:33:23.995Z,18.64
2022-08-26T03:35:53.310Z,19.29
2022-08-26T03:38:22.527Z,19.44
2022-08-26T03:40:50.537Z,19.40
2022-08-26T03:43:18.698Z,19.18
2022-08-26T03:45:46.733Z,18.50
2022-08-26T03:48:14.946Z,19.11
2022-08-26T03:50:44.705Z,19.02
2022-08-26T03:53:13.379Z,18.96
2022-08-26T03:55:43.337Z,18.90
2022-08-26T03:58:12.305Z,18.94
2022-08-26T04:00:40.366Z,18.84
2022-08-26T04:03:09.941Z,18.87
2022-08-26T04:05:39.063Z,18.83
2022-08-26T04:08:08.547Z,18.62
2022-08-26T04:10:38.913Z,18.80
2022-08-26T04:13:07.525Z,18.69
2022-08-26T04:15:35.754Z,18.72
2022-08-26T04:18:04.351Z,18.62
2022-08-26T04:20:32.507Z,18.59
2022-08-26T04:23:00.625Z,18.41
2022-08-26T04:25:30.378Z,18.44
2022-08-26T04:27:59.010Z,18.52
2022-08-26T04:30:27.661Z,18.43
2022-08-26T04:32:55.783Z,18.50
2022-08-26T04:35:25.921Z,17.96
2022-08-26T04:37:55.313Z,18.36
2022-08-26T04:40:24.079Z,18.54
2022-08-26T04:42:55.718Z,18.56
2022-08-26T04:45:25.471Z,18.13
2022-08-26T04:47:56.446Z,18.58
2022-08-26T04:50:25.800Z,18.73
2022-08-26T04:52:55.062Z,18.72
2022-08-26T04:55:25.214Z,18.81
2022-08-26T04:58:10.231Z,18.61
2022-08-26T05:00:39.647Z,18.30
2022-08-26T05:03:10.594Z,18.90
2022-08-26T05:05:41.142Z,18.94
2022-08-26T05:08:10.039Z,19.01
2022-08-26T05:10:43.810Z,19.00
2022-08-26T05:13:15.590Z,18.77
2022-08-26T05:15:44.753Z,18.71
2022-08-26T05:18:14.293Z,18.79
2022-08-26T05:20:43.299Z,18.62
2022-08-26T05:23:11.263Z,18.63
2022-08-26T05:25:41.434Z,18.37
2022-08-26T05:28:10.394Z,18.14
2022-08-26T05:30:40.442Z,18.55
2022-08-26T05:33:09.439Z,18.72
2022-08-26T05:35:39.380Z,18.80
2022-08-26T05:38:12.634Z,18.46
2022-08-26T05:40:47.281Z,19.00
2022-08-26T05:43:15.819Z,19.16
2022-08-26T05:45:49.919Z,19.43
2022-08-26T05:48:22.649Z,19.51
2022-08-26T05:50:54.274Z,19.28
2022-08-26T05:53:25.921Z,19.50
2022-08-26T05:55:55.493Z,19.51
2022-08-26T05:58:24.383Z,19.67
2022-08-26T06:01:00.355Z,19.56
2022-08-26T06:03:29.371Z,19.62
2022-08-26T06:05:57.611Z,19.89
2022-08-26T06:08:25.728Z,19.95
2022-08-26T06:10:55.768Z,19.91
2022-08-26T06:13:26.801Z,19.72
2022-08-26T06:15:56.649Z,19.94
2022-08-26T06:18:32.532Z,20.07
2022-08-26T06:21:00.846Z,20.26
2022-08-26T06:23:47.409Z,19.96
2022-08-26T06:26:16.967Z,20.72
2022-08-26T06:28:45.810Z,20.95
2022-08-26T06:31:14.558Z,21.13
2022-08-26T06:33:44.590Z,21.22
2022-08-26T06:36:16.595Z,20.98
2022-08-26T06:38:47.641Z,20.35
2022-08-26T06:41:15.887Z,21.48
2022-08-26T06:43:43.966Z,21.65
2022-08-26T06:46:14.123Z,21.12
2022-08-26T06:48:43.527Z,21.74
2022-08-26T06:51:14.727Z,22.02
2022-08-26T06:53:45.561Z,21.73
2022-08-26T06:56:15.047Z,21.65
2022-08-26T06:58:43.102Z,22.65
2022-08-26T07:01:19.700Z,22.72
2022-08-26T07:03:51.853Z,22.73
2022-08-26T07:06:22.884Z,22.27
2022-08-26T07:08:53.398Z,22.88
2022-08-26T07:11:22.745Z,22.96
2022-08-26T07:13:52.199Z,23.04
2022-08-26T07:16:20.424Z,23.12
2022-08-26T07:18:52.965Z,23.32
2022-08-26T07:21:22.339Z,23.51
2022-08-26T07:23:52.348Z,23.50
2022-08-26T07:26:23.217Z,23.32
2022-08-26T07:28:54.912Z,23.59
2022-08-26T07:31:24.883Z,23.72
2022-08-26T07:33:54.874Z,23.84
2022-08-26T07:36:24.181Z,24.01
2022-08-26T07:38:53.503Z,24.10
2022-08-26T07:41:24.189Z,24.28
2022-08-26T07:43:52.609Z,24.16
2022-08-26T07:46:27.153Z,24.89
2022-08-26T07:49:00.129Z,25.17
2022-08-26T07:51:28.207Z,25.40
2022-08-26T07:53:56.691Z,24.47
2022-08-26T07:56:25.569Z,24.57
2022-08-26T07:58:54.377Z,25.02
2022-08-26T08:01:24.114Z,25.41
2022-08-26T08:03:53.306Z,25.48
2022-08-26T08:06:27.152Z,25.70
2022-08-26T08:08:55.888Z,26.16
2022-08-26T08:11:24.635Z,26.29
2022-08-26T08:13:56.390Z,26.46
2022-08-26T08:16:26.104Z,26.74
2022-08-26T08:18:54.574Z,26.51
2022-08-26T08:21:25.464Z,26.58
2022-08-26T08:23:55.335Z,26.71
2022-08-26T08:26:24.866Z,26.77
2022-08-26T08:28:55.689Z,26.73
2022-08-26T08:31:54.548Z,26.70
2022-08-26T08:34:13.721Z,26.28
2022-08-26T08:36:43.181Z,26.16
2022-08-26T08:39:11.751Z,26.51
2022-08-26T08:41:52.761Z,26.91
2022-08-26T08:46:55.267Z,26.86
2022-08-26T08:49:25.961Z,27.22
2022-08-26T08:52:00.639Z,26.83
2022-08-26T08:54:30.065Z,27.51
2022-08-26T08:57:04.161Z,27.81
2022-08-26T08:59:34.999Z,28.17
2022-08-26T09:02:18.429Z,28.02
2022-08-26T09:05:06.841Z,28.28
2022-08-26T09:07:40.212Z,28.28
2022-08-26T09:10:25.659Z,28.35
2022-08-26T09:12:54.035Z,28.50
2022-08-26T09:15:28.551Z,28.51
2022-08-26T09:18:06.765Z,28.26
2022-08-26T09:20:45.630Z,28.50
2022-08-26T09:23:15.507Z,28.67
2022-08-26T09:25:51.046Z,28.68
2022-08-26T09:28:21.173Z,28.65
2022-08-26T09:31:03.047Z,28.50
2022-08-26T09:33:34.699Z,28.63
2022-08-26T09:36:24.838Z,28.78
2022-08-26T09:38:55.182Z,28.71
2022-08-26T09:41:27.044Z,28.77
2022-08-26T09:44:17.150Z,28.60
2022-08-26T09:46:57.256Z,28.33
2022-08-26T09:49:35.609Z,28.42
2022-08-26T09:52:08.560Z,28.36
2022-08-26T09:54:39.782Z,28.54
2022-08-26T09:57:28.412Z,29.08
2022-08-26T09:59:57.650Z,28.80
2022-08-26T10:02:47.709Z,29.61
2022-08-26T10:05:29.692Z,29.45
2022-08-26T10:07:59.550Z,29.41
2022-08-26T10:10:34.785Z,29.50
2022-08-26T10:13:10.872Z,29.57
2022-08-26T10:15:50.725Z,29.67
2022-08-26T10:18:24.850Z,29.56
2022-08-26T10:20:58.820Z,29.63
2022-08-26T10:23:32.538Z,28.75
2022-08-26T10:26:07.053Z,28.97
2022-08-26T10:28:41.314Z,29.08
2022-08-26T10:31:27.353Z,28.92
2022-08-26T10:34:00.343Z,28.96
2022-08-26T10:39:44.560Z,28.97
2022-08-26T10:42:23.048Z,29.21
2022-08-26T10:44:55.069Z,29.29
2022-08-26T10:47:32.455Z,29.40
2022-08-26T10:50:03.182Z,29.49
2022-08-26T10:52:44.912Z,29.95
2022-08-26T10:55:22.121Z,30.02
2022-08-26T10:57:59.344Z,30.11
2022-08-26T11:00:58.392Z,29.83
2022-08-26T11:03:35.643Z,30.24
2022-08-26T11:06:24.570Z,30.39
2022-08-26T11:08:53.873Z,30.15
2022-08-26T11:11:50.167Z,29.91
2022-08-26T11:14:53.590Z,29.72
2022-08-26T11:17:59.997Z,29.81
2022-08-26T11:20:37.528Z,29.08
2022-08-26T11:23:40.423Z,29.73
2022-08-26T11:26:35.444Z,29.66
2022-08-26T11:29:13.136Z,29.70
2022-08-26T11:31:57.547Z,29.97
2022-08-26T11:34:52.364Z,30.00
2022-08-26T11:37:22.740Z,29.90
2022-08-26T11:39:57.152Z,29.74
2022-08-26T11:42:34.277Z,29.99
2022-08-26T11:45:23.674Z,30.03
2022-08-26T11:47:54.623Z,29.63
2022-08-26T11:50:26.111Z,29.37
2022-08-26T11:52:56.321Z,29.42
2022-08-26T11:55:25.354Z,29.11
2022-08-26T11:57:56.279Z,28.99
2022-08-26T12:00:28.374Z,28.72
2022-08-26T12:03:08.548Z,28.71
2022-08-26T12:05:43.341Z,28.75
2022-08-26T12:08:17.938Z,28.83
2022-08-26T12:10:46.642Z,28.56
2022-08-26T12:13:23.201Z,28.17
2022-08-26T12:15:55.642Z,27.77
2022-08-26T12:18:29.555Z,27.05
2022-08-26T12:21:01.411Z,27.71
2022-08-26T12:23:43.363Z,27.92
2022-08-26T12:26:20.172Z,27.89
2022-08-26T12:28:50.958Z,28.10
2022-08-26T12:31:26.820Z,28.19
2022-08-26T12:33:59.174Z,27.97
2022-08-26T12:36:31.646Z,28.10
2022-08-26T12:39:08.099Z,28.34
2022-08-26T12:41:46.507Z,28.52
2022-08-26T12:44:35.207Z,28.55
2022-08-26T12:47:06.414Z,28.69
2022-08-26T12:49:36.438Z,28.75
2022-08-26T12:52:06.639Z,28.80
2022-08-26T12:54:56.728Z,28.92
2022-08-26T12:57:30.431Z,28.98
2022-08-26T13:00:26.277Z,28.96
2022-08-26T13:02:56.985Z,28.99
2022-08-26T13:05:33.001Z,29.12
2022-08-26T13:08:16.467Z,29.31
2022-08-26T13:10:47.348Z,29.14
2022-08-26T13:13:15.702Z,29.13
2022-08-26T13:15:44.782Z,29.40
2022-08-26T13:18:12.800Z,29.26
2022-08-26T13:20:45.121Z,29.04
2022-08-26T13:23:13.647Z,28.69
2022-08-26T13:25:42.043Z,28.68
2022-08-26T13:28:09.949Z,28.86
2022-08-26T13:30:38.074Z,28.63
2022-08-26T13:33:06.225Z,28.68
2022-08-26T13:35:34.461Z,28.55
2022-08-26T13:38:03.754Z,28.36
2022-08-26T13:40:34.621Z,28.42
2022-08-26T13:43:02.932Z,28.22
2022-08-26T13:45:31.675Z,28.26
2022-08-26T13:48:00.438Z,28.08
2022-08-26T13:50:28.458Z,28.02
2022-08-26T13:52:56.432Z,27.99
2022-08-26T13:55:25.854Z,28.04
2022-08-26T13:57:53.966Z,27.93
2022-08-26T14:00:22.924Z,27.72
2022-08-26T14:02:51.154Z,27.65
2022-08-26T14:05:19.315Z,27.75
2022-08-26T14:07:47.505Z,27.66
2022-08-26T14:10:15.586Z,27.77
2022-08-26T14:12:45.816Z,27.80
2022-08-26T14:15:16.258Z,27.63
2022-08-26T14:17:44.922Z,27.54
2022-08-26T14:20:16.968Z,27.61
2022-08-26T14:23:03.561Z,27.59
2022-08-26T14:25:34.670Z,27.35
2022-08-26T14:28:04.516Z,26.80
2022-08-26T14:30:32.484Z,26.45
2022-08-26T14:33:00.578Z,26.38
2022-08-26T14:35:30.696Z,26.19
2022-08-26T14:37:59.176Z,26.08
2022-08-26T14:40:30.673Z,26.15
2022-08-26T14:42:59.922Z,26.07
2022-08-26T14:45:29.823Z,26.05
2022-08-26T14:47:58.844Z,26.09
2022-08-26T14:50:27.839Z,26.03
2022-08-26T14:53:13.414Z,26.10
2022-08-26T14:55:43.391Z,26.13
2022-08-26T14:58:11.224Z,26.26
2022-08-26T15:00:40.490Z,25.98
2022-08-26T15:03:09.112Z,26.17
2022-08-26T15:05:37.436Z,26.13
2022-08-26T15:08:10.370Z,26.18
2022-08-26T15:10:39.015Z,26.48
2022-08-26T15:13:07.168Z,26.60
2022-08-26T15:15:35.485Z,26.80
2022-08-26T15:18:05.535Z,26.92
2022-08-26T15:23:06.026Z,27.10
2022-08-26T15:25:34.465Z,27.22
2022-08-26T15:28:02.589Z,27.35
2022-08-26T15:30:30.561Z,27.12
2022-08-26T15:32:58.897Z,26.87
2022-08-26T15:35:28.301Z,26.76
2022-08-26T15:38:01.202Z,27.32
2022-08-26T15:40:29.392Z,27.50
2022-08-26T15:43:11.429Z,27.38
2022-08-26T15:45:45.633Z,27.19
2022-08-26T15:48:13.998Z,27.08
2022-08-26T15:50:51.579Z,26.86
2022-08-26T15:53:19.874Z,27.02
2022-08-26T15:55:48.234Z,27.12
2022-08-26T15:58:17.936Z,27.05
2022-08-26T16:00:45.996Z,26.48
2022-08-26T16:03:14.023Z,26.97
2022-08-26T16:05:44.060Z,27.00
2022-08-26T16:08:15.467Z,27.02
2022-08-26T16:10:50.011Z,26.90
2022-08-26T16:13:20.036Z,26.67
2022-08-26T16:15:48.750Z,26.66
2022-08-26T16:18:17.717Z,26.49
2022-08-26T16:20:57.823Z,26.20
2022-08-26T16:23:40.400Z,26.23
2022-08-26T16:26:12.528Z,26.09
2022-08-26T16:28:40.716Z,25.67
2022-08-26T16:31:09.552Z,25.74
2022-08-26T16:33:39.005Z,25.47
2022-08-26T16:36:08.208Z,25.31
2022-08-26T16:38:37.674Z,25.04
2022-08-26T16:41:08.245Z,25.07
2022-08-26T16:43:36.568Z,24.73
2022-08-26T16:46:06.955Z,24.84
2022-08-26T16:48:36.466Z,24.85
2022-08-26T16:51:04.615Z,24.53
2022-08-26T16:53:33.633Z,24.28
2022-08-26T16:56:01.605Z,24.68
2022-08-26T16:58:31.341Z,24.68
2022-08-26T17:00:59.384Z,24.62
2022-08-26T17:03:27.566Z,24.68
2022-08-26T17:05:55.673Z,24.73
2022-08-26T17:08:28.345Z,24.62
2022-08-26T17:10:57.272Z,24.60
2022-08-26T17:13:35.381Z,24.36
2022-08-26T17:16:07.477Z,24.71
2022-08-26T17:18:37.004Z,24.74
2022-08-26T17:21:07.214Z,24.69
2022-08-26T17:23:35.607Z,24.48
2022-08-26T17:26:04.044Z,24.46
2022-08-26T17:28:32.282Z,24.56
2022-08-26T17:31:01.095Z,24.64
2022-08-26T17:33:31.146Z,24.33
2022-08-26T17:36:00.337Z,24.56
2022-08-26T17:38:29.239Z,24.39
2022-08-26T17:40:58.055Z,24.36
2022-08-26T17:43:26.712Z,24.17
2022-08-26T17:45:59.062Z,24.21
2022-08-26T17:48:37.572Z,24.07
2022-08-26T17:51:08.384Z,24.14
2022-08-26T17:53:37.192Z,23.99
2022-08-26T17:56:08.223Z,23.72
2022-08-26T17:58:36.666Z,24.08
2022-08-26T18:01:06.337Z,23.82
2022-08-26T18:03:36.483Z,23.73
2022-08-26T18:06:08.727Z,23.65
2022-08-26T18:08:36.923Z,23.53
2022-08-26T18:11:09.940Z,23.34
2022-08-26T18:13:38.132Z,22.88
2022-08-26T18:16:17.629Z,23.22
2022-08-26T18:18:47.767Z,23.24
2022-08-26T18:21:16.800Z,23.20
2022-08-26T18:23:45.131Z,22.89
2022-08-26T18:26:18.277Z,22.89
2022-08-26T18:28:46.282Z,22.90
2022-08-26T18:31:15.330Z,22.76
2022-08-26T18:33:44.055Z,21.86
2022-08-26T18:36:18.525Z,22.68
2022-08-26T18:38:47.748Z,22.55
2022-08-26T18:41:20.667Z,22.71
2022-08-26T18:43:50.445Z,22.70
2022-08-26T18:46:19.915Z,22.28
2022-08-26T18:48:51.181Z,22.64
2022-08-26T18:51:23.502Z,22.51
2022-08-26T18:53:52.005Z,22.47
2022-08-26T18:56:20.666Z,22.47
2022-08-26T18:58:49.515Z,22.75
2022-08-26T19:01:19.963Z,21.60
2022-08-26T19:03:50.134Z,22.65
2022-08-26T19:06:21.276Z,22.65
2022-08-26T19:08:50.173Z,22.46
2022-08-26T19:11:32.408Z,22.47
2022-08-26T19:14:07.639Z,22.56
2022-08-26T19:16:36.179Z,22.56
2022-08-26T19:19:04.782Z,22.58
2022-08-26T19:21:35.699Z,22.67
2022-08-26T19:24:07.174Z,22.60
2022-08-26T19:26:36.592Z,22.49
2022-08-26T19:29:04.800Z,22.51
2022-08-26T19:31:33.510Z,22.65
2022-08-26T19:34:01.686Z,22.59
2022-08-26T19:36:31.080Z,22.51
2022-08-26T19:39:03.240Z,22.32
2022-08-26T19:41:36.879Z,22.37
2022-08-26T19:44:08.328Z,22.49
2022-08-26T19:49:09.933Z,22.58
2022-08-26T19:51:38.061Z,22.54
2022-08-26T19:54:07.849Z,22.46
2022-08-26T19:56:36.690Z,22.45
2022-08-26T19:59:04.795Z,22.35
2022-08-26T20:01:32.979Z,22.35
2022-08-26T20:04:01.041Z,22.38
2022-08-26T20:06:29.099Z,22.15
2022-08-26T20:08:57.082Z,22.46
2022-08-26T20:11:26.692Z,22.28
2022-08-26T20:13:55.309Z,22.40
2022-08-26T20:16:23.476Z,22.35
2022-08-26T20:19:08.687Z,22.17
2022-08-26T20:21:39.313Z,22.49
2022-08-26T20:24:10.476Z,21.99
2022-08-26T20:26:42.475Z,22.28
2022-08-26T20:29:11.739Z,22.15
2022-08-26T20:31:40.421Z,22.43
2022-08-26T20:34:08.770Z,22.44
2022-08-26T20:36:40.268Z,22.46
2022-08-26T20:39:08.941Z,22.24
2022-08-26T20:41:37.037Z,22.46
2022-08-26T20:44:07.088Z,22.49
2022-08-26T20:46:36.207Z,22.53
2022-08-26T20:49:05.953Z,22.40
2022-08-26T20:51:37.487Z,22.28
2022-08-26T20:54:06.321Z,22.34
2022-08-26T20:56:34.497Z,21.78
2022-08-26T20:59:02.787Z,22.26
2022-08-26T21:01:34.874Z,22.31
2022-08-26T21:04:06.328Z,22.15
2022-08-26T21:06:34.983Z,22.02
2022-08-26T21:09:04.551Z,22.14
2022-08-26T21:11:33.390Z,22.03
2022-08-26T21:14:07.103Z,22.11
2022-08-26T21:16:47.493Z,20.94
2022-08-26T21:19:18.066Z,22.05
2022-08-26T21:21:47.221Z,21.38
2022-08-26T21:24:15.766Z,21.98
2022-08-26T21:26:44.136Z,21.86
2022-08-26T21:29:13.568Z,21.85
2022-08-26T21:31:46.493Z,21.84
2022-08-26T21:34:18.277Z,21.79
2022-08-26T21:36:47.063Z,21.77
2022-08-26T21:39:15.860Z,21.70
2022-08-26T21:41:45.155Z,21.61
2022-08-26T21:44:14.684Z,21.56
2022-08-26T21:46:44.046Z,20.96
2022-08-26T21:49:15.779Z,21.44
2022-08-26T21:51:48.594Z,21.41
2022-08-26T21:54:18.122Z,21.32
2022-08-26T21:56:47.912Z,21.36
2022-08-26T21:59:18.257Z,21.32
2022-08-26T22:01:47.146Z,21.31
2022-08-26T22:04:15.918Z,21.29
2022-08-26T22:06:47.304Z,21.33
2022-08-26T22:09:18.031Z,21.30
2022-08-26T22:11:47.526Z,21.15
2022-08-26T22:14:17.477Z,21.16
2022-08-26T22:16:50.570Z,20.99
2022-08-26T22:19:20.111Z,21.11
2022-08-26T22:21:50.861Z,21.14
2022-08-26T22:24:20.823Z,21.02
2022-08-26T22:26:50.050Z,21.02
2022-08-26T22:29:19.037Z,20.90
2022-08-26T22:31:47.672Z,20.06
2022-08-26T22:34:19.555Z,20.91
2022-08-26T22:36:50.621Z,20.79
2022-08-26T22:39:21.825Z,20.56
2022-08-26T22:41:50.289Z,20.24
2022-08-26T22:44:19.509Z,20.50
2022-08-26T22:46:48.806Z,20.46
2022-08-26T22:49:17.697Z,20.41
2022-08-26T22:51:46.780Z,20.58
2022-08-26T22:54:17.094Z,20.45
2022-08-26T22:56:45.858Z,20.46
2022-08-26T22:59:16.075Z,20.31
2022-08-26T23:01:44.445Z,20.33
2022-08-26T23:04:13.154Z,20.36
2022-08-26T23:06:47.628Z,20.36
2022-08-26T23:09:18.983Z,20.34
2022-08-26T23:11:48.470Z,20.38
2022-08-26T23:14:17.563Z,20.41
2022-08-26T23:16:45.656Z,20.33
2022-08-26T23:19:15.854Z,19.80
2022-08-26T23:21:43.876Z,20.38
2022-08-26T23:24:12.941Z,20.26
2022-08-26T23:26:43.692Z,20.32
2022-08-26T23:29:14.105Z,20.32
2022-08-26T23:31:43.449Z,20.19
2022-08-26T23:34:29.879Z,20.32
2022-08-26T23:36:59.042Z,20.37
2022-08-26T23:39:28.288Z,20.31
2022-08-26T23:41:58.137Z,19.99
2022-08-26T23:44:26.785Z,20.32
2022-08-26T23:46:55.156Z,20.29
2022-08-26T23:49:23.647Z,20.30
2022-08-26T23:52:05.749Z,20.33
2022-08-26T23:54:33.970Z,20.31
2022-08-26T23:57:03.600Z,20.22
2022-08-26T23:59:31.682Z,20.22
